Time;durP1;ratioP1;P1;durP2;ratioP2;P2;SDS_P1;SDS_P2;PMS_P1;PMS_P2;Temp;Humidity;BMP_temperature;BMP_pressure;BME280_temperature;BME280_humidity;BME280_pressure;Samples;Min_cycle;Max_cycle;Signal;HPM_P1;HPM_P2
2021/10/23 00:00:40;;;;;;;33.30;17.70;;;;;;;7.52;78.71;97539.05;116256;1183;72207;-69
2021/10/23 00:03:10;;;;;;;27.80;17.80;;;;;;;7.54;79.35;97548.09;116351;1182;68426;-75
2021/10/23 00:05:39;;;;;;;31.50;17.90;;;;;;;7.55;79.57;97546.42;116427;1182;68479;-79
2021/10/23 00:08:09;;;;;;;29.20;17.10;;;;;;;7.58;79.92;97551.66;116396;1182;60364;-74
2021/10/23 00:10:38;;;;;;;27.10;18.10;;;;;;;7.60;80.02;97554.79;116420;1182;60337;-71
2021/10/23 00:13:08;;;;;;;33.30;23.50;;;;;;;7.62;79.69;97558.13;116209;1183;71590;-68
2021/10/23 00:15:39;;;;;;;35.30;25.20;;;;;;;7.64;79.29;97558.27;116393;1182;67946;-70
2021/10/23 00:18:10;;;;;;;45.20;26.80;;;;;;;7.63;79.78;97555.20;116437;1181;68489;-70
2021/10/23 00:20:39;;;;;;;38.80;23.70;;;;;;;7.63;79.89;97553.64;116273;1184;60348;-72
2021/10/23 00:23:10;;;;;;;41.10;26.40;;;;;;;7.62;81.48;97551.59;116477;1182;60353;-69
2021/10/23 00:25:39;;;;;;;43.10;26.70;;;;;;;7.61;79.96;97547.98;116428;1182;71985;-69
2021/10/23 00:28:08;;;;;;;39.10;25.40;;;;;;;7.60;79.58;97550.05;116352;1182;68379;-73
2021/10/23 00:30:37;;;;;;;41.40;24.70;;;;;;;7.57;79.42;97550.48;116401;1182;69400;-71
2021/10/23 00:33:08;;;;;;;;;;;;;;;7.56;79.58;97547.75;116418;1182;60363;-81
2021/10/23 00:35:37;;;;;;;33.50;23.10;;;;;;;7.54;79.50;97545.02;116314;1184;60359;-78
2021/10/23 00:38:07;;;;;;;33.90;21.80;;;;;;;7.54;80.08;97544.08;116308;1183;70217;-76
2021/10/23 00:40:36;;;;;;;31.00;21.30;;;;;;;7.55;80.74;97540.75;116416;1182;67238;-70
2021/10/23 00:43:06;;;;;;;35.30;22.20;;;;;;;7.57;81.60;97547.34;116435;1182;69089;-83
2021/10/23 00:45:35;;;;;;;28.70;19.20;;;;;;;7.58;81.85;97547.73;116428;1182;60356;-78
2021/10/23 00:48:05;;;;;;;33.20;19.00;;;;;;;7.57;81.78;97546.09;116438;1181;60357;-78
2021/10/23 00:50:35;;;;;;;38.10;24.20;;;;;;;7.57;80.76;97536.33;116219;1184;72304;-70
2021/10/23 00:53:05;;;;;;;35.80;22.10;;;;;;;7.57;80.59;97534.67;116417;1182;68375;-77
2021/10/23 00:55:34;;;;;;;30.80;18.30;;;;;;;7.57;81.44;97541.42;116421;1182;69184;-70
2021/10/23 00:58:03;;;;;;;28.80;18.30;;;;;;;7.60;81.69;97539.11;116407;1174;60325;-78
2021/10/23 01:00:34;;;;;;;27.90;18.40;;;;;;;7.60;82.02;97544.63;116399;1181;60769;-74
2021/10/23 01:03:04;;;;;;;31.20;17.30;;;;;;;7.59;82.03;97548.33;116453;1182;72173;-68
2021/10/23 01:05:34;;;;;;;29.10;17.50;;;;;;;7.57;81.70;97543.23;116256;1182;68196;-72
2021/10/23 01:08:04;;;;;;;31.60;18.90;;;;;;;7.57;81.09;97548.44;116472;1182;69266;-74
2021/10/23 01:10:34;;;;;;;27.30;18.70;;;;;;;7.58;80.92;97551.19;116324;1183;60395;-72
2021/10/23 01:13:04;;;;;;;34.90;21.50;;;;;;;7.60;80.64;97555.33;116311;1182;60372;-69
2021/10/23 01:15:34;;;;;;;34.40;21.80;;;;;;;7.62;81.19;97560.34;116499;1182;72025;-75
2021/10/23 01:18:07;;;;;;;33.90;24.20;;;;;;;7.61;81.14;97558.77;116234;1182;67675;-70
2021/10/23 01:20:37;;;;;;;38.20;24.50;;;;;;;7.60;80.65;97561.09;116462;1182;69269;-69
2021/10/23 01:23:07;;;;;;;33.00;22.60;;;;;;;7.58;80.34;97565.42;116419;1182;60345;-78
2021/10/23 01:25:37;;;;;;;36.10;24.10;;;;;;;7.57;81.32;97566.40;116518;1182;60294;-78
2021/10/23 01:28:06;;;;;;;34.60;22.30;;;;;;;7.58;80.79;97573.70;116415;1184;72105;-72
2021/10/23 01:30:36;;;;;;;29.80;20.90;;;;;;;7.56;81.16;97571.14;116414;1182;68118;-67
2021/10/23 01:33:06;;;;;;;35.20;22.80;;;;;;;7.56;81.50;97568.62;116279;1183;69503;-68
2021/10/23 01:35:37;;;;;;;34.40;23.90;;;;;;;7.56;81.04;97569.16;116561;1182;60345;-76
2021/10/23 01:38:07;;;;;;;30.50;21.00;;;;;;;7.55;81.36;97565.95;116441;1182;60357;-68
2021/10/23 01:40:37;;;;;;;36.30;22.60;;;;;;;7.56;82.02;97563.98;116187;1182;72204;-81
2021/10/23 01:43:07;;;;;;;32.50;22.50;;;;;;;7.57;81.70;97561.91;116267;1183;68160;-77
2021/10/23 01:45:36;;;;;;;33.00;21.80;;;;;;;7.58;81.98;97556.39;116406;1183;68538;-69
2021/10/23 01:48:06;;;;;;;32.40;22.10;;;;;;;7.58;82.50;97550.71;116387;1182;60360;-71
2021/10/23 01:50:36;;;;;;;38.30;21.50;;;;;;;7.60;81.73;97549.35;116382;1182;60348;-82
2021/10/23 01:53:05;;;;;;;35.00;23.00;;;;;;;7.58;82.12;97553.39;116403;1183;72328;-80
2021/10/23 01:55:35;;;;;;;31.70;21.00;;;;;;;7.58;82.28;97555.36;116210;1182;68388;-71
2021/10/23 01:58:06;;;;;;;32.30;21.40;;;;;;;7.56;82.82;97561.21;116149;1182;68727;-69
2021/10/23 02:00:36;;;;;;;30.50;21.60;;;;;;;7.54;83.61;97563.68;116468;1181;60766;-71
2021/10/23 02:03:07;;;;;;;;;;;;;;;7.50;83.93;97563.56;116341;1183;60420;-82
2021/10/23 02:05:37;;;;;;;31.40;21.20;;;;;;;7.48;84.42;97562.34;116452;1182;72053;-73
2021/10/23 02:08:06;;;;;;;31.30;21.00;;;;;;;7.49;83.22;97562.41;116445;1182;66571;-69
2021/10/23 02:10:36;;;;;;;28.30;17.90;;;;;;;7.50;83.05;97569.55;116414;1182;68421;-84
2021/10/23 02:13:05;;;;;;;29.70;20.00;;;;;;;7.50;84.20;97569.33;116394;1182;60379;-83
2021/10/23 02:15:35;;;;;;;32.30;23.60;;;;;;;7.50;84.42;97576.33;116286;1183;60410;-74
2021/10/23 02:18:05;;;;;;;32.40;20.80;;;;;;;7.50;84.25;97579.63;116430;1182;70420;-72
2021/10/23 02:20:35;;;;;;;30.20;20.90;;;;;;;7.50;84.53;97578.53;116461;1182;67482;-76
2021/10/23 02:23:05;;;;;;;31.40;22.30;;;;;;;7.51;84.62;97577.10;116200;1184;69081;-71
2021/10/23 02:25:36;;;;;;;38.50;25.10;;;;;;;7.52;84.16;97578.89;116443;1182;60367;-72
2021/10/23 02:28:06;;;;;;;35.10;24.50;;;;;;;7.52;83.60;97580.31;116240;1182;60383;-74
2021/10/23 02:30:36;;;;;;;37.70;24.80;;;;;;;7.51;83.92;97581.65;116224;1182;72202;-71
2021/10/23 02:33:05;;;;;;;35.20;23.30;;;;;;;7.50;83.82;97580.10;116384;1184;67416;-81
2021/10/23 02:35:35;;;;;;;33.50;23.00;;;;;;;7.48;85.07;97577.77;116440;1182;69244;-70
2021/10/23 02:38:04;;;;;;;37.50;27.30;;;;;;;7.48;83.98;97575.34;116274;1183;60341;-75
2021/10/23 02:40:35;;;;;;;34.50;23.30;;;;;;;7.48;83.70;97585.81;116387;1184;60349;-70
2021/10/23 02:43:05;;;;;;;28.50;20.90;;;;;;;7.48;84.51;97591.15;116270;1183;71430;-76
2021/10/23 02:45:36;;;;;;;32.30;20.50;;;;;;;7.48;84.76;97588.64;116469;1181;67825;-78
2021/10/23 02:48:05;;;;;;;32.90;21.30;;;;;;;7.48;85.54;97589.59;116121;1184;69036;-78
2021/10/23 02:50:37;;;;;;;34.80;21.60;;;;;;;7.49;84.93;97597.69;116407;1182;60717;-76
2021/10/23 02:53:07;;;;;;;35.70;22.20;;;;;;;7.48;84.07;97601.70;116414;1181;60362;-68
2021/10/23 02:55:37;;;;;;;38.20;26.90;;;;;;;7.48;83.78;97606.28;116429;1182;72194;-68
2021/10/23 02:58:06;;;;;;;43.60;28.80;;;;;;;7.47;83.32;97607.86;116421;1182;67810;-77
2021/10/23 03:00:35;;;;;;;37.10;25.50;;;;;;;7.46;83.77;97610.88;116072;1182;69364;-71
2021/10/23 03:03:07;;;;;;;33.30;22.40;;;;;;;7.44;83.24;97608.39;116314;1182;60736;-67
2021/10/23 03:05:37;;;;;;;30.00;22.10;;;;;;;7.41;83.72;97616.54;116497;1182;60360;-75
2021/10/23 03:08:06;;;;;;;31.40;22.10;;;;;;;7.39;83.74;97618.63;116405;1182;71539;-76
2021/10/23 03:10:36;;;;;;;30.80;21.10;;;;;;;7.37;84.64;97624.94;116323;1182;67892;-71
2021/10/23 03:13:05;;;;;;;36.20;21.30;;;;;;;7.35;85.35;97622.28;116394;1184;69031;-72
2021/10/23 03:15:35;;;;;;;38.40;23.20;;;;;;;7.32;84.61;97617.52;116473;1184;60326;-68
2021/10/23 03:18:05;;;;;;;41.00;26.00;;;;;;;7.31;84.12;97620.92;116413;1182;60357;-80
2021/10/23 03:20:34;;;;;;;39.80;27.50;;;;;;;7.29;84.14;97618.67;116291;1183;72181;-71
2021/10/23 03:23:04;;;;;;;42.40;27.30;;;;;;;7.27;83.67;97614.38;116452;1181;68078;-69
2021/10/23 03:25:34;;;;;;;42.90;28.70;;;;;;;7.24;84.17;97620.70;116342;1183;67690;-78
2021/10/23 03:28:04;;;;;;;37.70;25.90;;;;;;;7.22;83.72;97624.42;116344;1183;60774;-73
2021/10/23 03:30:34;;;;;;;35.00;23.60;;;;;;;7.21;84.09;97623.36;116468;1182;60345;-72
2021/10/23 03:33:03;;;;;;;36.80;23.90;;;;;;;7.20;85.50;97623.66;116449;1182;71400;-77
2021/10/23 03:35:33;;;;;;;38.90;27.10;;;;;;;7.19;86.21;97620.61;116182;1184;66759;-71
2021/10/23 03:38:03;;;;;;;37.70;23.20;;;;;;;7.17;85.41;97618.50;116421;1183;69057;-83
2021/10/23 03:40:33;;;;;;;37.90;25.70;;;;;;;7.18;85.93;97617.46;116293;1183;60365;-70
2021/10/23 03:43:03;;;;;;;34.20;24.70;;;;;;;7.18;85.13;97615.35;116486;1182;60314;-69
2021/10/23 03:45:33;;;;;;;39.00;24.00;;;;;;;7.19;86.22;97616.36;116435;1184;71229;-69
2021/10/23 03:48:02;;;;;;;37.90;24.00;;;;;;;7.20;86.09;97616.44;116340;1183;67429;-69
2021/10/23 03:50:33;;;;;;;33.00;23.10;;;;;;;7.20;85.96;97617.06;116323;1182;69178;-75
2021/10/23 03:53:02;;;;;;;36.20;22.90;;;;;;;7.19;86.86;97623.92;116340;1183;60367;-72
2021/10/23 03:55:31;;;;;;;35.30;25.00;;;;;;;7.17;86.64;97624.79;116390;1183;60318;-76
2021/10/23 03:58:01;;;;;;;38.20;26.70;;;;;;;7.15;86.66;97627.57;116366;1182;71182;-78
2021/10/23 04:00:32;;;;;;;37.60;26.30;;;;;;;7.12;85.46;97627.45;116380;1182;68575;-75
2021/10/23 04:03:01;;;;;;;39.20;26.30;;;;;;;7.09;85.40;97634.35;116361;1182;69073;-72
2021/10/23 04:05:31;;;;;;;37.30;26.90;;;;;;;7.05;85.58;97636.30;116419;1183;60358;-73
2021/10/23 04:08:01;;;;;;;44.80;27.90;;;;;;;7.00;85.76;97641.14;116407;1182;60371;-71
2021/10/23 04:10:30;;;;;;;41.20;26.30;;;;;;;6.94;85.27;97639.86;116495;1182;72344;-81
2021/10/23 04:13:00;;;;;;;37.70;25.50;;;;;;;6.88;85.54;97647.27;116350;1182;67641;-79
2021/10/23 04:15:29;;;;;;;32.10;22.90;;;;;;;6.81;85.98;97646.07;116397;1182;68252;-72
2021/10/23 04:17:59;;;;;;;37.80;24.40;;;;;;;6.73;86.74;97649.86;116431;1182;60364;-71
2021/10/23 04:20:28;;;;;;;33.40;22.50;;;;;;;6.65;86.21;97656.63;116309;1183;60341;-75
2021/10/23 04:22:57;;;;;;;32.50;23.00;;;;;;;6.55;85.55;97655.16;116393;1182;72174;-79
2021/10/23 04:25:27;;;;;;;39.20;26.30;;;;;;;6.46;84.97;97657.36;116392;1181;68376;-71
2021/10/23 04:27:58;;;;;;;39.20;26.70;;;;;;;6.40;84.73;97660.64;116345;1184;69340;-81
2021/10/23 04:30:27;;;;;;;37.90;27.10;;;;;;;6.34;85.13;97661.09;116397;1184;60333;-71
2021/10/23 04:32:56;;;;;;;40.30;26.90;;;;;;;6.29;85.54;97660.27;116465;1181;60381;-80
2021/10/23 04:35:25;;;;;;;39.20;27.30;;;;;;;6.24;85.71;97662.42;116468;1182;72197;-81
2021/10/23 04:37:55;;;;;;;38.90;26.00;;;;;;;6.19;87.43;97656.98;116326;1184;67412;-83
2021/10/23 04:40:24;;;;;;;41.60;28.40;;;;;;;6.12;87.45;97656.48;116393;1183;68606;-68
2021/10/23 04:42:53;;;;;;;40.30;27.40;;;;;;;6.05;86.72;97659.44;116336;1184;60356;-78
2021/10/23 04:45:22;;;;;;;35.10;25.80;;;;;;;5.97;86.63;97663.75;116434;1182;60417;-80
2021/10/23 04:47:51;;;;;;;43.20;29.70;;;;;;;5.90;86.64;97664.16;116395;1184;70446;-81
2021/10/23 04:50:20;;;;;;;41.30;28.90;;;;;;;5.83;86.54;97666.58;116386;1182;67808;-71
2021/10/23 04:52:49;;;;;;;50.40;31.60;;;;;;;5.76;86.51;97667.71;116188;1184;69316;-73
2021/10/23 04:55:19;;;;;;;47.50;29.50;;;;;;;5.71;86.38;97669.77;116342;1183;60359;-75
2021/10/23 04:57:48;;;;;;;40.80;27.30;;;;;;;5.66;86.67;97670.76;116416;1183;60304;-69
2021/10/23 05:00:17;;;;;;;37.00;26.00;;;;;;;5.57;87.24;97672.63;116366;1182;72210;-79
2021/10/23 05:02:46;;;;;;;31.40;21.70;;;;;;;5.45;86.93;97673.55;116415;1182;68375;-74
2021/10/23 05:05:15;;;;;;;31.10;22.10;;;;;;;5.32;87.28;97671.88;116340;1183;68655;-83
2021/10/23 05:07:44;;;;;;;31.70;21.20;;;;;;;5.21;87.89;97674.29;116430;1182;60360;-75
2021/10/23 05:10:14;;;;;;;36.70;22.80;;;;;;;5.14;88.60;97682.23;116401;1182;60302;-70
2021/10/23 05:12:43;;;;;;;38.30;25.50;;;;;;;5.10;88.05;97683.42;116353;1182;72367;-77
2021/10/23 05:15:11;;;;;;;44.70;29.20;;;;;;;5.08;87.85;97683.20;116353;1183;67697;-72
2021/10/23 05:17:40;;;;;;;42.50;29.00;;;;;;;5.10;87.42;97692.84;116441;1182;68295;-73
2021/10/23 05:20:10;;;;;;;42.20;28.80;;;;;;;5.13;88.00;97699.57;116363;1184;60416;-69
2021/10/23 05:22:40;;;;;;;48.50;29.90;;;;;;;5.15;88.86;97709.29;116478;1183;60401;-70
2021/10/23 05:25:09;;;;;;;48.30;31.20;;;;;;;5.18;88.52;97711.00;116475;1182;72242;-70
2021/10/23 05:27:38;;;;;;;49.10;32.80;;;;;;;5.20;87.60;97707.93;116383;1182;68777;-68
2021/10/23 05:30:07;;;;;;;58.70;39.10;;;;;;;5.24;87.31;97701.42;116386;1182;68506;-78
2021/10/23 05:32:37;;;;;;;56.20;37.20;;;;;;;5.28;87.48;97704.14;116417;1182;60356;-80
2021/10/23 05:35:06;;;;;;;59.60;40.90;;;;;;;5.32;87.68;97701.77;116340;1183;60306;-71
2021/10/23 05:37:37;;;;;;;57.20;37.30;;;;;;;5.38;87.93;97699.63;116391;1179;72121;-74
2021/10/23 05:40:06;;;;;;;56.00;38.30;;;;;;;5.44;88.08;97699.14;116299;1184;67767;-82
2021/10/23 05:42:35;;;;;;;48.30;34.40;;;;;;;5.50;88.27;97701.52;116458;1182;68664;-71
2021/10/23 05:45:05;;;;;;;39.10;25.70;;;;;;;5.59;87.42;97705.03;116366;1182;60322;-81
2021/10/23 05:47:34;;;;;;;31.90;22.60;;;;;;;5.68;87.57;97711.17;116279;1184;60356;-75
2021/10/23 05:50:04;;;;;;;28.40;20.90;;;;;;;5.76;87.68;97722.67;116493;1181;71425;-68
2021/10/23 05:52:33;;;;;;;33.90;22.40;;;;;;;5.84;86.93;97729.14;116425;1184;67623;-80
2021/10/23 05:55:03;;;;;;;37.10;24.20;;;;;;;5.92;86.86;97731.86;116225;1184;69319;-72
2021/10/23 05:57:32;;;;;;;41.20;25.70;;;;;;;6.00;86.81;97740.77;116458;1182;60349;-80
2021/10/23 06:00:07;;;;;;;39.60;27.30;;;;;;;6.12;87.33;97743.14;116264;1183;60484;-82
2021/10/23 06:02:42;;;;;;;;;;;;;;;6.24;87.07;97738.09;116368;1183;72236;-73
2021/10/23 06:05:11;;;;;;;47.00;30.10;;;;;;;6.41;86.78;97737.50;116456;1182;68570;-70
2021/10/23 06:07:42;;;;;;;48.80;30.50;;;;;;;6.64;86.86;97747.52;116385;1182;69276;-82
2021/10/23 06:10:13;;;;;;;44.50;31.50;;;;;;;7.00;86.26;97753.72;116451;1182;60386;-82
2021/10/23 06:12:43;;;;;;;51.80;37.00;;;;;;;7.38;85.68;97762.11;116454;1182;60386;-85
2021/10/23 06:15:14;;;;;;;45.30;33.30;;;;;;;7.86;85.23;97764.29;116420;1183;71232;-86
2021/10/23 06:17:46;;;;;;;51.90;35.10;;;;;;;8.37;83.41;97774.08;116335;1182;66877;-80
2021/10/23 06:20:15;;;;;;;45.60;29.60;;;;;;;8.75;82.06;97777.11;116445;1182;68555;-87
2021/10/23 06:23:10;;;;;;;37.00;26.70;;;;;;;9.18;81.93;97779.77;116430;1183;60354;-81
2021/10/23 06:25:41;;;;;;;35.70;25.10;;;;;;;9.87;81.19;97784.17;116334;1182;60321;-86
2021/10/23 06:28:11;;;;;;;;;;;;;;;10.40;78.88;97788.67;116228;1184;72268;-88
2021/10/23 06:30:40;;;;;;;35.60;21.70;;;;;;;10.89;76.51;97790.73;116523;1183;67045;-87
2021/10/23 06:33:09;;;;;;;32.40;22.10;;;;;;;11.39;72.09;97797.69;116459;1182;69281;-85
2021/10/23 06:35:38;;;;;;;29.40;21.90;;;;;;;11.41;69.25;97798.27;116431;1182;60403;-83
2021/10/23 06:38:08;;;;;;;32.40;22.40;;;;;;;11.51;69.64;97808.92;116517;1181;60356;-86
2021/10/23 06:40:37;;;;;;;26.60;20.80;;;;;;;11.63;68.76;97806.95;116163;1184;72921;-77
2021/10/23 06:43:10;;;;;;;25.20;18.00;;;;;;;11.65;69.44;97803.89;116629;1183;67611;-85
2021/10/23 06:45:39;;;;;;;25.30;18.40;;;;;;;11.75;68.30;97799.33;116638;1184;69357;-86
2021/10/23 06:48:10;;;;;;;25.10;16.40;;;;;;;12.09;69.62;97794.27;116574;1183;60335;-83
2021/10/23 06:50:39;;;;;;;23.90;17.10;;;;;;;12.27;68.92;97795.77;116527;1182;60345;-81
2021/10/23 06:53:08;;;;;;;27.90;16.20;;;;;;;12.57;69.04;97799.52;116450;1183;72629;-86
2021/10/23 06:55:36;;;;;;;25.10;16.90;;;;;;;12.89;67.11;97796.19;116452;1183;68392;-70
2021/10/23 06:58:05;;;;;;;23.70;17.00;;;;;;;13.01;66.69;97794.64;116438;1182;69530;-87
2021/10/23 07:00:37;;;;;;;30.40;18.50;;;;;;;13.24;65.38;97802.77;116465;1183;60325;-87
2021/10/23 07:03:07;;;;;;;24.00;17.10;;;;;;;13.36;64.80;97808.02;116271;1182;60310;-85
2021/10/23 07:05:36;;;;;;;23.20;14.20;;;;;;;13.27;65.40;97814.52;116462;1184;72153;-87
2021/10/23 07:08:07;;;;;;;25.50;13.90;;;;;;;13.27;64.92;97820.32;116414;1183;67643;-82
2021/10/23 07:10:40;;;;;;;20.80;13.20;;;;;;;13.00;65.35;97822.36;116439;1181;69056;-74
2021/10/23 07:13:09;;;;;;;26.10;14.60;;;;;;;12.92;65.52;97830.88;116292;1184;60357;-86
2021/10/23 07:15:39;;;;;;;25.60;15.90;;;;;;;12.86;65.69;97833.21;116661;1182;60416;-85
2021/10/23 07:18:14;;;;;;;23.10;15.20;;;;;;;12.58;66.46;97839.29;116456;1184;72890;-78
2021/10/23 07:20:45;;;;;;;20.50;15.30;;;;;;;12.38;67.02;97842.89;116207;1184;68417;-81
2021/10/23 07:23:16;;;;;;;23.90;15.30;;;;;;;12.06;68.49;97847.23;116531;1182;69046;-69
2021/10/23 07:25:47;;;;;;;21.90;14.40;;;;;;;12.12;68.60;97849.77;116418;1184;60313;-85
2021/10/23 07:28:16;;;;;;;23.00;16.30;;;;;;;12.16;68.69;97852.11;116774;1182;60363;-79
2021/10/23 07:30:45;;;;;;;22.70;15.60;;;;;;;12.12;68.84;97852.21;116501;1182;71969;-82
2021/10/23 07:33:13;;;;;;;24.70;15.50;;;;;;;12.14;69.18;97852.88;116474;1182;68428;-86
2021/10/23 07:35:42;;;;;;;25.70;16.20;;;;;;;12.14;69.86;97850.73;116579;1184;69236;-79
2021/10/23 07:38:11;;;;;;;23.10;14.90;;;;;;;12.22;69.54;97850.04;116519;1182;60410;-81
2021/10/23 07:40:40;;;;;;;21.20;14.60;;;;;;;12.24;68.44;97847.20;116551;1183;60806;-80
2021/10/23 07:43:11;;;;;;;24.70;15.20;;;;;;;12.25;68.96;97850.19;116550;1182;71378;-83
2021/10/23 07:45:40;;;;;;;20.10;14.50;;;;;;;12.37;68.09;97851.80;116505;1182;68887;-83
2021/10/23 07:48:10;;;;;;;23.80;15.70;;;;;;;12.34;67.05;97856.50;116415;1182;68538;-83
2021/10/23 07:50:38;;;;;;;22.90;15.50;;;;;;;12.20;67.64;97863.71;116422;1183;60485;-84
2021/10/23 07:53:07;;;;;;;23.20;15.70;;;;;;;12.18;67.99;97874.64;116428;1182;60296;-72
2021/10/23 07:55:39;;;;;;;21.80;13.40;;;;;;;12.16;67.83;97876.45;116544;1181;73405;-87
2021/10/23 07:58:08;;;;;;;20.20;13.60;;;;;;;12.11;67.16;97872.71;116469;1182;67513;-78
2021/10/23 08:00:37;;;;;;;16.50;11.60;;;;;;;12.14;66.89;97866.27;116539;1184;68498;-80
2021/10/23 08:03:06;;;;;;;17.50;12.30;;;;;;;12.17;65.92;97866.12;116528;1182;60438;-84
2021/10/23 08:05:37;;;;;;;20.70;14.20;;;;;;;12.22;65.97;97870.88;116418;1184;60318;-81
2021/10/23 08:08:06;;;;;;;21.10;13.70;;;;;;;12.40;65.89;97872.11;116493;1182;73257;-86
2021/10/23 08:10:36;;;;;;;21.40;14.90;;;;;;;12.51;65.81;97873.45;116512;1183;67832;-77
2021/10/23 08:13:04;;;;;;;24.90;16.50;;;;;;;12.98;65.69;97866.85;116461;1182;69230;-84
2021/10/23 08:15:34;;;;;;;24.20;15.60;;;;;;;13.81;64.69;97862.66;116440;1184;60377;-77
2021/10/23 08:18:03;;;;;;;24.00;15.30;;;;;;;14.41;60.68;97863.68;116502;1183;60372;-80
2021/10/23 08:20:34;;;;;;;21.10;13.10;;;;;;;14.57;60.57;97870.55;116226;1184;72672;-82
2021/10/23 08:23:04;;;;;;;19.30;12.60;;;;;;;14.88;58.86;97878.09;116420;1184;68382;-85
2021/10/23 08:25:35;;;;;;;21.40;12.00;;;;;;;15.37;55.16;97880.97;116402;1184;68611;-83
2021/10/23 08:28:18;;;;;;;17.40;10.90;;;;;;;16.09;52.50;97877.96;114989;1192;596170;-87
2021/10/23 08:30:47;;;;;;;16.60;11.10;;;;;;;16.49;50.58;97873.67;116378;1184;57475;-77
2021/10/23 08:33:17;;;;;;;17.30;11.00;;;;;;;16.70;49.70;97875.89;116556;1182;57420;-82
2021/10/23 08:35:46;;;;;;;19.40;11.40;;;;;;;16.83;48.38;97874.60;116278;1184;68141;-80
2021/10/23 08:38:15;;;;;;;17.40;11.50;;;;;;;16.93;47.74;97874.58;116335;1186;68165;-75
2021/10/23 08:40:44;;;;;;;19.30;11.80;;;;;;;17.75;47.32;97873.67;116290;1183;68022;-80
2021/10/23 08:43:16;;;;;;;16.60;10.10;;;;;;;18.63;44.81;97872.18;116290;1183;57356;-74
2021/10/23 08:45:48;;;;;;;15.70;10.90;;;;;;;18.94;42.88;97877.35;116331;1179;57433;-73
2021/10/23 08:48:18;;;;;;;17.20;11.40;;;;;;;19.61;42.72;97875.30;116418;1183;68636;-70
2021/10/23 08:50:51;;;;;;;19.00;11.80;;;;;;;20.50;40.20;97878.52;116519;1183;68578;-70
2021/10/23 08:53:42;;;;;;;19.20;11.90;;;;;;;21.03;38.22;97876.08;116635;1182;69216;-86
2021/10/23 08:56:11;;;;;;;16.60;10.40;;;;;;;20.64;37.94;97874.21;116595;1182;57932;-86
2021/10/23 08:58:42;;;;;;;13.60;9.20;;;;;;;21.06;37.62;97881.58;116475;1183;57987;-85
2021/10/23 09:01:14;;;;;;;14.60;8.70;;;;;;;21.17;36.77;97879.00;116570;1183;69038;-81
2021/10/23 09:03:47;;;;;;;14.50;8.70;;;;;;;20.98;35.34;97879.83;116423;1183;67418;-68
2021/10/23 09:06:37;;;;;;;11.30;6.60;;;;;;;19.97;35.91;97875.87;116339;1183;68281;-84
2021/10/23 09:09:10;;;;;;;11.70;6.70;;;;;;;19.12;36.54;97881.16;116397;1185;57923;-87
2021/10/23 09:11:46;;;;;;;10.10;6.40;;;;;;;18.71;38.02;97882.33;116322;1179;57987;-68
2021/10/23 09:14:26;;;;;;;12.20;6.50;;;;;;;18.26;38.57;97879.73;116561;1182;69371;-68
2021/10/23 09:17:06;;;;;;;12.80;6.20;;;;;;;18.01;39.55;97881.63;116327;1183;67169;-83
2021/10/23 09:19:48;;;;;;;11.40;5.90;;;;;;;17.49;39.18;97880.09;116688;1182;69013;-69
2021/10/23 09:22:34;;;;;;;9.60;6.20;;;;;;;17.27;40.21;97878.47;116401;1183;57997;-86
2021/10/23 09:25:22;;;;;;;13.60;6.60;;;;;;;16.98;40.64;97879.48;116648;1183;57939;-84
2021/10/23 09:28:12;;;;;;;11.80;6.40;;;;;;;16.73;41.46;97879.58;116634;1182;69775;-84
2021/10/23 09:30:45;;;;;;;13.50;6.30;;;;;;;16.05;43.25;97879.29;116376;1184;66667;-84
2021/10/23 09:33:16;;;;;;;11.80;6.40;;;;;;;15.69;44.68;97876.73;116619;1180;69310;-73
2021/10/23 09:35:51;;;;;;;13.70;6.70;;;;;;;15.17;46.27;97880.05;116811;1171;57894;-73
2021/10/23 09:38:25;;;;;;;13.80;5.90;;;;;;;15.04;46.45;97881.84;116964;1179;57932;-82
2021/10/23 09:40:56;;;;;;;9.70;4.50;;;;;;;14.86;45.50;97886.71;116972;1180;69180;-85
2021/10/23 09:43:29;;;;;;;9.20;4.00;;;;;;;14.57;43.46;97883.83;116678;1180;68293;-75
2021/10/23 09:45:57;;;;;;;7.40;3.50;;;;;;;14.30;43.81;97884.52;116925;1180;69682;-83
2021/10/23 09:48:43;;;;;;;7.60;3.60;;;;;;;14.01;43.77;97884.84;116977;1180;57929;-85
2021/10/23 09:51:38;;;;;;;7.40;3.50;;;;;;;13.78;44.10;97892.19;117033;1180;57942;-77
2021/10/23 09:54:14;;;;;;;7.10;2.90;;;;;;;13.61;44.56;97892.11;116652;1180;69572;-80
2021/10/23 09:56:50;;;;;;;6.90;3.10;;;;;;;13.36;43.50;97896.22;116982;1180;67809;-81
2021/10/23 09:59:29;;;;;;;7.70;3.00;;;;;;;13.29;43.23;97895.50;116631;1180;69547;-78
2021/10/23 10:02:01;;;;;;;9.70;3.60;;;;;;;13.10;43.39;97901.95;116884;1179;57898;-77
2021/10/23 10:04:31;;;;;;;9.90;4.60;;;;;;;12.95;44.57;97906.95;116931;1180;57901;-87
2021/10/23 10:07:02;;;;;;;9.00;3.20;;;;;;;12.90;44.57;97906.71;116696;1180;68993;-85
2021/10/23 10:09:31;;;;;;;8.90;3.70;;;;;;;12.84;44.37;97904.05;116763;1180;68497;-76
2021/10/23 10:12:01;;;;;;;6.80;3.20;;;;;;;12.79;44.68;97907.23;116618;1180;68277;-74
2021/10/23 10:14:36;;;;;;;9.60;4.00;;;;;;;12.71;44.33;97909.59;116919;1179;57938;-71
2021/10/23 10:17:05;;;;;;;9.10;3.20;;;;;;;12.73;44.35;97913.41;116989;1178;57891;-83
2021/10/23 10:19:34;;;;;;;9.20;4.60;;;;;;;12.77;44.73;97907.05;116955;1180;69535;-71
2021/10/23 10:22:09;;;;;;;8.00;3.30;;;;;;;12.75;44.29;97905.21;116945;1180;67510;-74
2021/10/23 10:24:39;;;;;;;9.00;3.70;;;;;;;12.80;44.38;97902.50;116638;1180;68477;-73
2021/10/23 10:27:15;;;;;;;9.70;3.50;;;;;;;12.88;44.40;97903.60;116923;1180;57894;-82
2021/10/23 10:29:55;;;;;;;10.40;4.30;;;;;;;12.96;44.37;97902.64;116663;1180;57603;-79
2021/10/23 10:32:41;;;;;;;31.80;19.90;;;;;;;13.02;44.11;97902.14;116889;1173;70637;-74
2021/10/23 10:38:28;;;;;;;29.00;17.40;;;;;;;13.01;44.73;97898.67;116931;1180;68425;-75
2021/10/23 10:44:18;;;;;;;9.00;3.70;;;;;;;13.39;43.54;97895.02;116912;1179;57923;-70
2021/10/23 10:47:02;;;;;;;13.50;5.20;;;;;;;13.61;43.47;97889.20;116958;1180;69710;-74
2021/10/23 10:49:41;;;;;;;22.20;10.90;;;;;;;13.75;42.78;97893.31;116955;1180;68438;-76
2021/10/23 10:52:38;;;;;;;16.50;8.40;;;;;;;13.90;43.06;97890.39;116948;1181;69444;-83
2021/10/23 10:55:14;;;;;;;14.90;7.30;;;;;;;14.11;42.98;97892.51;116980;1180;57971;-78
2021/10/23 10:57:58;;;;;;;8.70;3.50;;;;;;;14.27;41.54;97888.77;116826;1179;57895;-81
2021/10/23 11:00:45;;;;;;;11.00;5.00;;;;;;;14.20;40.94;97889.48;116673;1180;70365;-77
2021/10/23 11:03:41;;;;;;;11.10;4.70;;;;;;;14.39;41.80;97892.39;117063;1179;68780;-82
2021/10/23 11:06:29;;;;;;;7.00;3.30;;;;;;;14.59;40.82;97890.55;116892;1180;69212;-77
2021/10/23 11:09:07;;;;;;;9.20;3.30;;;;;;;14.79;40.26;97891.84;117041;1180;57955;-87
2021/10/23 11:11:48;;;;;;;8.10;3.30;;;;;;;14.75;38.75;97883.45;117083;1180;57916;-81
2021/10/23 11:14:23;;;;;;;7.60;3.60;;;;;;;14.45;38.31;97885.10;117077;1180;69763;-76
2021/10/23 11:16:55;;;;;;;6.60;2.70;;;;;;;14.27;37.78;97890.20;116970;1179;69082;-85
2021/10/23 11:19:39;;;;;;;9.00;3.00;;;;;;;13.82;38.36;97888.23;116868;1181;67860;-79
2021/10/23 11:22:26;;;;;;;10.20;3.10;;;;;;;13.98;39.02;97884.54;116760;1180;57933;-79
2021/10/23 11:25:05;;;;;;;8.90;2.60;;;;;;;14.26;39.21;97887.91;116771;1177;57939;-81
2021/10/23 11:27:35;;;;;;;7.60;3.00;;;;;;;14.48;38.63;97883.63;116652;1179;67880;-70
2021/10/23 11:30:15;;;;;;;6.80;2.80;;;;;;;14.72;38.32;97885.51;116890;1180;69042;-79
2021/10/23 11:32:47;;;;;;;9.40;3.00;;;;;;;14.89;37.64;97885.17;116849;1179;68345;-69
2021/10/23 11:35:16;;;;;;;10.20;2.80;;;;;;;15.22;38.09;97878.17;116852;1180;57913;-77
2021/10/23 11:37:53;;;;;;;8.90;3.00;;;;;;;15.65;37.37;97878.30;116860;1179;57955;-71
2021/10/23 11:40:22;;;;;;;7.10;2.70;;;;;;;15.96;35.39;97873.70;116827;1180;69176;-69
2021/10/23 11:42:53;;;;;;;9.40;3.50;;;;;;;16.28;35.38;97868.38;117089;1177;67650;-74